Latest Weather Observations for Mawson*

IDT60801

Issued at 8:35 am EDT Thursday 23 October 2014 (issued every 30 minutes, with the page automatically refreshed every 10 minutes)

About weather observations | Map of weather stations | Latest weather observations for ANT | Other Formats
Station Details ID: 300001 Name: MAWSON Lat: -67.60 Lon: 62.88 Height: 9.9 m
Data from the previous 72 hours. | See also: Recent months at Mawson*
Date/Time
EDT
Temp
°C
App
Temp
°C
Dew
Point
Rel
Hum
%
Delta-T
°C
Wind Press
QNH
hPa
Press
MSL
hPa
Rain
since 9 am
mm
Dir
 
Spd
km/h
Gust
km/h
Spd
kts
Gust
kts
23/08:30am -17.8 -33.2 -27.8 41 - SE 61 70 33 38 984.9 - -
23/08:00am -17.4 -32.8 -28.3 38 - SE 61 70 33 38 984.9 985.1 -
23/07:30am -17.5 -32.9 -27.8 40 - SE 61 70 33 38 985.0 - -
23/07:00am -17.2 -33.3 -28.1 38 - SE 65 72 35 39 985.0 - -
23/06:30am -16.6 -32.4 -27.8 37 - SE 63 74 34 40 985.2 - -
23/06:00am -16.1 -31.5 -28.0 35 - SE 61 72 33 39 985.4 - -
23/05:30am -15.5 -30.1 -27.4 35 - SE 57 69 31 37 985.6 - -
23/05:00am -15.3 -29.3 -26.6 37 - SE 54 65 29 35 985.7 985.9 -
23/04:30am -14.5 -28.5 -26.8 34 - SE 54 63 29 34 985.9 - -
23/04:00am -14.1 -27.3 -24.7 40 - SE 50 59 27 32 986.0 - -
23/03:30am -13.6 -26.4 -24.0 41 - SE 48 56 26 30 986.1 - -
23/03:00am -13.0 -24.1 -21.9 47 - SE 39 46 21 25 986.5 - -
23/02:30am -12.6 -23.3 -21.1 49 - SE 37 43 20 23 986.5 - -
23/02:00am -12.3 -22.6 -21.3 47 - ESE 35 43 19 23 986.5 986.7 -
23/01:30am -12.1 -21.8 -21.1 47 - ESE 32 37 17 20 986.5 - -
23/01:00am -11.8 -20.7 -21.3 45 - ESE 28 35 15 19 986.4 - -
23/12:30am -11.6 -21.3 -20.6 47 - ESE 32 39 17 21 986.6 - -
23/12:00am -11.5 -20.4 -20.3 48 - E 28 35 15 19 986.7 - -
 
Date/Time
EDT
Temp
°C
App
Temp
°C
Dew
Point
Rel
Hum
%
Delta-T
°C
Wind Press
QNH
hPa
Press
MSL
hPa
Rain
since 9 am
mm
Dir
 
Spd
km/h
Gust
km/h
Spd
kts
Gust
kts
22/11:30pm -11.5 -20.0 -19.8 50 - E 26 35 14 19 986.7 - -
22/11:00pm -11.3 -20.6 -19.9 49 - E 30 37 16 20 986.6 986.8 -
22/10:30pm -11.3 -19.5 -21.1 44 - E 24 32 13 17 986.5 - -
22/10:00pm -11.5 -19.3 -21.5 43 - ESE 22 28 12 15 986.6 - -
22/09:30pm -11.4 -20.0 -21.4 43 - ESE 26 33 14 18 986.7 - -
22/09:00pm -11.2 -20.1 -20.5 46 - E 28 33 15 18 986.6 - -
22/08:30pm -11.0 -19.9 -20.6 45 - E 28 33 15 18 986.5 - -
22/08:00pm -11.5 -20.4 -20.5 47 - E 28 35 15 19 986.0 986.2 -
22/07:30pm -11.7 -21.6 -20.9 46 - E 33 43 18 23 985.9 - -
22/07:00pm -12.2 -22.9 -22.7 41 - E 37 50 20 27 985.6 - -
22/06:30pm -12.0 -23.4 -22.0 43 - E 41 54 22 29 985.6 - -
22/06:20pm -12.1 -22.4 -22.3 42 - E 35 54 19 29 985.5 - -
22/06:00pm -12.2 -23.3 -23.0 40 - E 39 48 21 26 985.7 - -
22/05:30pm -12.5 -22.5 -24.4 36 - E 33 43 18 23 985.6 - -
22/05:23pm -12.5 -22.9 -24.1 37 - E 35 41 19 22 985.6 - -
22/05:00pm -12.8 -24.3 -24.4 37 - SE 41 48 22 26 985.4 985.6 -
22/04:30pm -13.4 -25.5 -24.4 39 - SE 44 54 24 29 985.3 - -
22/04:00pm -13.8 -25.7 -24.7 39 - SE 43 50 23 27 985.3 - -
22/03:30pm -14.5 -27.0 -25.1 40 - SE 46 56 25 30 985.1 - -
22/03:00pm -14.9 -28.9 -26.6 36 - SE 54 65 29 35 984.8 - -
22/02:30pm -14.2 -28.6 -28.3 29 - SE 56 69 30 37 984.8 - -
22/02:27pm -13.9 -28.0 -28.4 28 - SE 54 69 29 37 984.8 - -
22/02:00pm -13.7 -24.9 -27.5 30 - SE 39 48 21 26 985.1 985.3 -
22/01:30pm -14.0 -26.2 -28.5 28 - SE 44 57 24 31 985.0 - -
22/01:00pm -14.5 -26.7 -28.5 29 - SE 44 54 24 29 984.9 - -
22/12:30pm -15.7 -27.7 -27.9 34 - SSE 43 52 23 28 984.9 - -
22/12:00pm -17.4 -28.6 -28.8 36 - SSE 39 46 21 25 985.1 - -
22/11:48am -15.2 -27.2 -29.2 29 - SE 43 46 23 25 985.2 - -
22/11:30am -16.3 -28.3 -29.8 30 - ESE 43 50 23 27 985.2 - -
22/11:28am -16.2 -28.2 -29.0 32 - ESE 43 50 23 27 985.1 - -
22/11:00am -17.4 -29.0 -28.0 39 - SSE 41 52 22 28 984.9 985.1 -
22/10:30am -15.5 -27.1 -28.4 32 - SSE 41 54 22 29 984.8 - -
22/10:00am -17.1 -27.9 -28.6 36 - SSE 37 48 20 26 984.8 - -
22/09:30am -16.7 -28.3 -27.9 37 - SSE 41 48 22 26 984.9 - -
22/09:00am -17.8 -30.0 -27.8 41 - SSE 44 54 24 29 985.2 - -
22/08:30am -15.1 -26.3 -28.4 31 - SE 39 48 21 26 985.2 - -
22/08:00am -17.6 -30.5 -27.6 41 - SSE 48 61 26 33 985.0 985.2 -
22/07:51am -17.9 -29.5 -28.4 39 - SSE 41 61 22 33 984.8 - -
22/07:30am -16.4 -28.0 -26.5 41 - SSE 41 50 22 27 984.9 - -
22/07:00am -16.9 -28.8 -26.7 42 - SSE 43 48 23 26 984.8 - -
22/06:30am -16.7 -28.8 -27.1 40 - SSE 44 52 24 28 984.7 - -
22/06:00am -16.5 -28.1 -26.9 40 - SSE 41 46 22 25 985.0 - -
22/05:30am -16.2 -27.8 -26.9 39 - SSE 41 50 22 27 985.1 - -
22/05:00am -14.4 -25.2 -27.1 33 - SE 37 50 20 27 985.1 985.3 -
22/04:30am -14.0 -25.6 -26.4 34 - SE 41 46 22 25 985.1 - -
22/04:00am -14.2 -24.0 -24.0 43 - SSE 32 35 17 19 985.3 - -
22/03:30am -15.2 -25.2 -23.9 47 - SSE 33 41 18 22 985.3 - -
22/03:00am -13.7 -23.5 -23.3 44 - SE 32 37 17 20 985.3 - -
22/02:30am -13.7 -23.1 -22.8 46 - SE 30 33 16 18 985.3 - -
22/02:00am -13.3 -22.3 -21.7 49 - SE 28 32 15 17 985.3 985.5 -
22/01:30am -12.9 -21.5 -21.1 50 - SE 26 32 14 17 985.3 - -
22/01:00am -12.1 -19.5 -20.4 50 - SE 20 26 11 14 985.3 - -
22/12:30am -11.4 -17.9 -20.7 46 - ESE 15 19 8 10 985.3 - -
22/12:00am -11.0 -16.7 -21.9 40 - ESE 11 13 6 7 985.2 - -
 
Date/Time
EDT
Temp
°C
App
Temp
°C
Dew
Point
Rel
Hum
%
Delta-T
°C
Wind Press
QNH
hPa
Press
MSL
hPa
Rain
since 9 am
mm
Dir
 
Spd
km/h
Gust
km/h
Spd
kts
Gust
kts
21/11:30pm -10.8 -15.8 -23.2 35 - ESE 7 11 4 6 985.2 - -
21/11:00pm -11.1 -16.1 -22.6 38 - NE 7 11 4 6 985.3 985.5 -
21/10:30pm -10.5 -15.4 -20.6 43 - NNW 7 11 4 6 985.4 - -
21/10:00pm -10.7 -15.7 -21.9 39 - W 7 9 4 5 985.4 - -
21/09:30pm -11.1 -15.9 -23.8 34 - ESE 6 7 3 4 985.2 - -
21/09:00pm -10.9 -15.9 -24.0 33 - ENE 7 11 4 6 985.3 - -
21/08:30pm -11.0 -16.8 -24.4 32 - NNE 11 15 6 8 985.2 - -
21/08:00pm -11.2 -16.7 -25.3 30 - NNE 9 15 5 8 985.2 985.4 -
21/07:30pm -10.9 -16.3 -23.3 35 - NNE 9 17 5 9 985.2 - -
21/07:00pm -11.1 -16.9 -24.1 33 - NNE 11 13 6 7 985.2 - -
21/06:30pm -11.6 -19.0 -27.6 25 - ENE 19 26 10 14 985.0 - -
21/06:00pm -11.7 -20.7 -23.7 36 - E 28 35 15 19 984.8 - -
21/05:30pm -12.1 -21.2 -25.0 33 - ESE 28 35 15 19 984.7 - -
21/05:00pm -12.4 -22.8 -24.7 35 - SE 35 44 19 24 984.6 984.8 -
21/04:37pm -12.5 -23.3 -24.7 35 - SE 37 44 20 24 984.4 - -
21/04:30pm -12.7 -20.1 -28.6 25 - SE 19 26 10 14 984.7 - -
21/04:23pm -12.9 -21.2 -25.7 33 - E 24 28 13 15 984.6 - -
21/04:00pm -13.1 -24.3 -25.3 35 - ESE 39 46 21 25 984.4 - -
21/03:30pm -13.5 -25.1 -26.3 33 - SE 41 48 22 26 984.5 - -
21/03:00pm -13.5 -25.1 -26.3 33 - SE 41 46 22 25 984.5 - -
21/02:30pm -13.5 -24.7 -27.3 30 - SE 39 46 21 25 984.4 - -
21/02:00pm -14.3 -26.5 -28.0 30 - SE 44 54 24 29 984.3 984.5 -
21/01:36pm -14.7 -24.6 -27.3 33 - SSE 32 50 17 27 984.3 - -
21/01:30pm -15.9 -26.3 -28.1 34 - SSE 35 50 19 27 984.5 - -
21/01:00pm -16.8 -28.0 -27.2 40 - S 39 46 21 25 984.5 - -
21/12:39pm -17.0 -26.9 -28.5 36 - SSE 32 44 17 24 984.6 - -
21/12:30pm -14.1 -21.7 -27.5 31 - E 20 26 11 14 984.7 - -
21/12:26pm -14.0 -21.6 -27.7 30 - E 20 24 11 13 984.6 - -
21/12:00pm -15.7 -26.9 -27.6 35 - SE 39 44 21 24 984.5 - -
21/11:30am -15.0 -25.1 -28.6 30 - ESE 33 44 18 24 984.3 - -
21/11:00am -15.5 -27.7 -28.4 32 - SE 44 57 24 31 984.1 984.3 -
21/10:30am -15.0 -26.6 -28.3 31 - SE 41 52 22 28 983.9 - -
21/10:00am -14.8 -26.0 -27.8 32 - SE 39 50 21 27 983.9 - -
21/09:30am -15.7 -26.9 -27.3 36 - SSE 39 46 21 25 983.8 - -
21/09:00am -15.0 -26.2 -27.3 34 - SSE 39 52 21 28 983.7 - -
21/08:30am -16.1 -28.0 -26.3 41 - SSE 43 50 23 27 983.6 - -
21/08:00am -14.6 -25.8 -26.9 34 - SSE 39 44 21 24 983.6 983.8 -
21/07:30am -15.5 -27.4 -27.1 36 - SSE 43 52 23 28 983.6 - -
21/07:00am -14.4 -25.6 -26.1 36 - SSE 39 48 21 26 983.6 - -
21/06:41am -14.7 -26.2 -25.8 38 - SSE 41 59 22 32 983.4 - -
21/06:30am -15.5 -27.4 -26.5 38 - SSE 43 50 23 27 983.4 - -
21/06:00am -15.0 -26.5 -25.5 40 - SSE 41 48 22 26 983.7 - -
21/05:30am -14.5 -26.0 -25.1 40 - SSE 41 46 22 25 983.7 - -
21/05:00am -13.9 -25.0 -24.3 41 - SE 39 44 21 24 983.7 983.9 -
21/04:30am -13.5 -23.9 -24.4 39 - SE 35 43 19 23 983.7 - -
21/04:00am -12.7 -23.1 -24.6 36 - SE 35 39 19 21 983.6 - -
21/03:30am -12.9 -23.2 -23.3 41 - SE 35 43 19 23 983.6 - -
21/03:00am -13.0 -24.1 -23.4 41 - SE 39 46 21 25 983.6 - -
21/02:30am -12.2 -22.1 -22.2 43 - SE 33 39 18 21 983.7 - -
21/02:00am -12.5 -22.8 -21.0 49 - SE 35 39 19 21 983.7 983.9 -
21/01:30am -11.7 -21.4 -21.2 45 - SE 32 37 17 20 983.6 - -
21/01:00am -11.0 -19.5 -19.3 50 - SE 26 30 14 16 983.6 - -
21/12:30am -10.1 -17.3 -20.3 43 - ESE 19 22 10 12 983.6 - -
21/12:00am -9.8 -17.0 -19.7 44 - E 19 22 10 12 983.7 - -
 
Date/Time
EDT
Temp
°C
App
Temp
°C
Dew
Point
Rel
Hum
%
Delta-T
°C
Wind Press
QNH
hPa
Press
MSL
hPa
Rain
since 9 am
mm
Dir
 
Spd
km/h
Gust
km/h
Spd
kts
Gust
kts
20/11:30pm -8.7 -14.4 -21.0 36 - N 11 15 6 8 983.7 - -
20/11:00pm -8.7 -14.8 -20.7 37 - NW 13 15 7 8 983.7 983.9 -
20/10:30pm -9.0 -14.7 -20.7 38 - N 11 17 6 9 983.7 - -
20/10:00pm -9.3 -15.8 -20.6 39 - NNE 15 20 8 11 983.7 - -
20/09:30pm -9.0 -16.4 -21.0 37 - NE 20 24 11 13 983.6 - -
20/09:00pm -9.3 -16.7 -20.6 39 - NE 20 24 11 13 983.7 - -
20/08:30pm -9.3 -19.2 -20.9 38 - E 33 41 18 22 983.5 - -
20/08:00pm -8.6 -16.0 -19.4 41 - ESE 20 24 11 13 983.7 983.9 -
20/07:30pm -8.9 -18.6 -20.0 40 - ESE 32 37 17 20 983.7 - -
20/07:00pm -9.5 -19.8 -20.5 40 - ESE 35 44 19 24 983.8 - -
20/06:30pm -9.3 -19.3 -23.2 31 - SE 33 41 18 22 983.7 - -
20/06:00pm -9.7 -20.7 -21.3 38 - SE 39 48 21 26 983.9 - -
20/05:30pm -10.5 -20.2 -21.4 40 - ESE 32 41 17 22 984.1 - -
20/05:00pm -10.0 -21.9 -23.2 33 - SE 43 48 23 26 983.9 984.1 -
20/04:30pm -11.2 -23.2 -22.7 38 - SE 44 59 24 32 984.0 - -
20/04:00pm -12.0 -25.2 -23.7 37 - SE 50 61 27 33 984.0 - -
20/03:30pm -12.0 -26.0 -24.0 36 - SE 54 65 29 35 983.8 - -
20/03:00pm -11.7 -26.1 -25.7 30 - SE 56 63 30 34 983.7 - -
20/02:30pm -11.8 -24.3 -24.8 33 - SE 46 57 25 31 984.2 - -
20/02:00pm -12.6 -27.2 -25.8 32 - SE 57 70 31 38 984.1 984.3 -

Other Formats:

Comma delimited format used in spreadsheet applications
http://www.bom.gov.au/fwo/IDT60803/IDT60803.89564.axf

JavaScript Object Notation format (JSON) in row-major order
http://www.bom.gov.au/fwo/IDT60803/IDT60803.89564.json